sensor_id;sensor_type;location;lat;lon;timestamp;temperature;humidity
14529;DHT22;7351;51.194;4.098;2022-10-31T00:00:29;15.80;99.90
14529;DHT22;7351;51.194;4.098;2022-10-31T00:02:56;15.80;99.90
14529;DHT22;7351;51.194;4.098;2022-10-31T00:05:23;15.80;99.90
14529;DHT22;7351;51.194;4.098;2022-10-31T00:07:52;15.70;99.90
14529;DHT22;7351;51.194;4.098;2022-10-31T00:10:19;15.50;99.90
14529;DHT22;7351;51.194;4.098;2022-10-31T00:12:45;15.40;99.90
14529;DHT22;7351;51.194;4.098;2022-10-31T00:15:14;15.40;99.90
14529;DHT22;7351;51.194;4.098;2022-10-31T00:17:41;15.40;99.90
14529;DHT22;7351;51.194;4.098;2022-10-31T00:20:09;15.40;99.90
14529;DHT22;7351;51.194;4.098;2022-10-31T00:22:36;15.40;99.90
14529;DHT22;7351;51.194;4.098;2022-10-31T00:25:03;15.40;99.90
14529;DHT22;7351;51.194;4.098;2022-10-31T00:27:30;15.40;99.90
14529;DHT22;7351;51.194;4.098;2022-10-31T00:29:57;15.50;99.90
14529;DHT22;7351;51.194;4.098;2022-10-31T00:32:28;15.50;99.90
14529;DHT22;7351;51.194;4.098;2022-10-31T00:34:55;15.50;99.90
14529;DHT22;7351;51.194;4.098;2022-10-31T00:37:22;15.50;99.90
14529;DHT22;7351;51.194;4.098;2022-10-31T00:39:49;15.50;99.90
14529;DHT22;7351;51.194;4.098;2022-10-31T00:42:16;15.50;99.90
14529;DHT22;7351;51.194;4.098;2022-10-31T00:44:43;15.50;99.90
14529;DHT22;7351;51.194;4.098;2022-10-31T00:47:10;15.40;99.90
14529;DHT22;7351;51.194;4.098;2022-10-31T00:49:38;15.40;99.90
14529;DHT22;7351;51.194;4.098;2022-10-31T00:52:05;15.30;99.90
14529;DHT22;7351;51.194;4.098;2022-10-31T00:54:32;15.40;99.90
14529;DHT22;7351;51.194;4.098;2022-10-31T00:56:59;15.30;99.90
14529;DHT22;7351;51.194;4.098;2022-10-31T00:59:26;15.30;99.90
14529;DHT22;7351;51.194;4.098;2022-10-31T01:01:53;15.30;99.90
14529;DHT22;7351;51.194;4.098;2022-10-31T01:04:20;15.30;99.90
14529;DHT22;7351;51.194;4.098;2022-10-31T01:06:48;15.30;99.90
14529;DHT22;7351;51.194;4.098;2022-10-31T01:09:15;15.20;99.90
14529;DHT22;7351;51.194;4.098;2022-10-31T01:11:42;15.20;99.90
14529;DHT22;7351;51.194;4.098;2022-10-31T01:14:09;15.20;99.90
14529;DHT22;7351;51.194;4.098;2022-10-31T01:16:36;15.20;99.90
14529;DHT22;7351;51.194;4.098;2022-10-31T01:19:03;15.20;99.90
14529;DHT22;7351;51.194;4.098;2022-10-31T01:21:30;15.10;99.90
14529;DHT22;7351;51.194;4.098;2022-10-31T01:23:59;15.10;99.90
14529;DHT22;7351;51.194;4.098;2022-10-31T01:26:29;15.10;99.90
14529;DHT22;7351;51.194;4.098;2022-10-31T01:28:58;15.10;99.90
14529;DHT22;7351;51.194;4.098;2022-10-31T01:31:27;15.10;99.90
14529;DHT22;7351;51.194;4.098;2022-10-31T01:33:54;15.00;99.90
14529;DHT22;7351;51.194;4.098;2022-10-31T01:36:22;15.00;99.90
14529;DHT22;7351;51.194;4.098;2022-10-31T01:38:51;14.90;99.90
14529;DHT22;7351;51.194;4.098;2022-10-31T01:41:21;14.90;99.90
14529;DHT22;7351;51.194;4.098;2022-10-31T01:43:50;14.90;99.90
14529;DHT22;7351;51.194;4.098;2022-10-31T01:46:20;15.00;99.90
14529;DHT22;7351;51.194;4.098;2022-10-31T01:48:49;14.90;99.90
14529;DHT22;7351;51.194;4.098;2022-10-31T01:51:17;14.80;99.90
14529;DHT22;7351;51.194;4.098;2022-10-31T01:53:48;14.40;99.90
14529;DHT22;7351;51.194;4.098;2022-10-31T01:56:16;14.20;99.90
14529;DHT22;7351;51.194;4.098;2022-10-31T01:58:46;14.00;99.90
14529;DHT22;7351;51.194;4.098;2022-10-31T02:01:14;13.80;99.90
14529;DHT22;7351;51.194;4.098;2022-10-31T02:03:43;13.90;99.90
14529;DHT22;7351;51.194;4.098;2022-10-31T02:06:20;14.00;99.90
14529;DHT22;7351;51.194;4.098;2022-10-31T02:08:48;14.20;99.90
14529;DHT22;7351;51.194;4.098;2022-10-31T02:11:15;14.20;99.90
14529;DHT22;7351;51.194;4.098;2022-10-31T02:13:42;14.30;99.90
14529;DHT22;7351;51.194;4.098;2022-10-31T02:16:11;14.30;99.90
14529;DHT22;7351;51.194;4.098;2022-10-31T02:18:38;14.40;99.90
14529;DHT22;7351;51.194;4.098;2022-10-31T02:21:11;14.50;99.90
14529;DHT22;7351;51.194;4.098;2022-10-31T02:26:53;14.50;99.90
14529;DHT22;7351;51.194;4.098;2022-10-31T02:29:46;14.40;99.90
14529;DHT22;7351;51.194;4.098;2022-10-31T02:32:23;14.40;99.90
14529;DHT22;7351;51.194;4.098;2022-10-31T02:34:57;14.40;99.90
14529;DHT22;7351;51.194;4.098;2022-10-31T02:37:29;14.40;99.90
14529;DHT22;7351;51.194;4.098;2022-10-31T02:40:10;14.40;99.90
14529;DHT22;7351;51.194;4.098;2022-10-31T02:42:43;14.40;99.90
14529;DHT22;7351;51.194;4.098;2022-10-31T02:45:20;14.40;99.90
14529;DHT22;7351;51.194;4.098;2022-10-31T02:47:51;14.40;99.90
14529;DHT22;7351;51.194;4.098;2022-10-31T02:50:23;14.30;99.90
14529;DHT22;7351;51.194;4.098;2022-10-31T02:52:52;14.30;99.90
14529;DHT22;7351;51.194;4.098;2022-10-31T02:55:46;14.30;99.90
14529;DHT22;7351;51.194;4.098;2022-10-31T02:58:17;14.30;99.90
14529;DHT22;7351;51.194;4.098;2022-10-31T03:03:34;14.30;99.90
14529;DHT22;7351;51.194;4.098;2022-10-31T03:06:07;14.30;99.90
14529;DHT22;7351;51.194;4.098;2022-10-31T03:08:40;14.30;99.90
14529;DHT22;7351;51.194;4.098;2022-10-31T03:11:09;14.20;99.90
14529;DHT22;7351;51.194;4.098;2022-10-31T03:13:41;14.10;99.90
14529;DHT22;7351;51.194;4.098;2022-10-31T03:16:13;14.00;99.90
14529;DHT22;7351;51.194;4.098;2022-10-31T03:18:46;14.10;99.90
14529;DHT22;7351;51.194;4.098;2022-10-31T03:21:19;14.10;99.90
14529;DHT22;7351;51.194;4.098;2022-10-31T03:23:49;14.20;99.90
14529;DHT22;7351;51.194;4.098;2022-10-31T03:26:18;14.10;99.90
14529;DHT22;7351;51.194;4.098;2022-10-31T03:28:49;14.10;99.90
14529;DHT22;7351;51.194;4.098;2022-10-31T03:31:19;14.10;99.90
14529;DHT22;7351;51.194;4.098;2022-10-31T03:33:51;14.10;99.90
14529;DHT22;7351;51.194;4.098;2022-10-31T03:36:19;14.10;99.90
14529;DHT22;7351;51.194;4.098;2022-10-31T03:38:47;14.10;99.90
14529;DHT22;7351;51.194;4.098;2022-10-31T03:41:18;14.20;99.90
14529;DHT22;7351;51.194;4.098;2022-10-31T03:43:52;14.20;99.90
14529;DHT22;7351;51.194;4.098;2022-10-31T03:46:21;14.20;99.90
14529;DHT22;7351;51.194;4.098;2022-10-31T03:48:50;14.20;99.90
14529;DHT22;7351;51.194;4.098;2022-10-31T03:51:22;14.20;99.90
14529;DHT22;7351;51.194;4.098;2022-10-31T03:53:54;14.20;99.90
14529;DHT22;7351;51.194;4.098;2022-10-31T03:56:29;14.10;99.90
14529;DHT22;7351;51.194;4.098;2022-10-31T03:59:01;14.10;99.90
14529;DHT22;7351;51.194;4.098;2022-10-31T04:01:32;14.10;99.90
14529;DHT22;7351;51.194;4.098;2022-10-31T04:04:03;14.10;99.90
14529;DHT22;7351;51.194;4.098;2022-10-31T04:06:31;14.20;99.90
14529;DHT22;7351;51.194;4.098;2022-10-31T04:09:02;14.20;99.90
14529;DHT22;7351;51.194;4.098;2022-10-31T04:11:32;14.20;99.90
14529;DHT22;7351;51.194;4.098;2022-10-31T04:14:01;14.20;99.90
14529;DHT22;7351;51.194;4.098;2022-10-31T04:16:28;14.10;99.90
14529;DHT22;7351;51.194;4.098;2022-10-31T04:18:55;14.00;99.90
14529;DHT22;7351;51.194;4.098;2022-10-31T04:21:28;14.00;99.90
14529;DHT22;7351;51.194;4.098;2022-10-31T04:23:56;14.00;99.90
14529;DHT22;7351;51.194;4.098;2022-10-31T04:26:23;14.00;99.90
14529;DHT22;7351;51.194;4.098;2022-10-31T04:28:50;13.90;99.90
14529;DHT22;7351;51.194;4.098;2022-10-31T04:31:17;13.90;99.90
14529;DHT22;7351;51.194;4.098;2022-10-31T04:33:44;13.80;99.90
14529;DHT22;7351;51.194;4.098;2022-10-31T04:36:11;13.70;99.90
14529;DHT22;7351;51.194;4.098;2022-10-31T04:38:39;13.70;99.90
14529;DHT22;7351;51.194;4.098;2022-10-31T04:41:06;13.60;99.90
14529;DHT22;7351;51.194;4.098;2022-10-31T04:43:34;13.60;99.90
14529;DHT22;7351;51.194;4.098;2022-10-31T04:46:01;13.60;99.90
14529;DHT22;7351;51.194;4.098;2022-10-31T04:48:28;13.60;99.90
14529;DHT22;7351;51.194;4.098;2022-10-31T04:50:59;13.60;99.90
14529;DHT22;7351;51.194;4.098;2022-10-31T04:53:26;13.50;99.90
14529;DHT22;7351;51.194;4.098;2022-10-31T04:55:54;13.60;99.90
14529;DHT22;7351;51.194;4.098;2022-10-31T04:58:21;13.60;99.90
14529;DHT22;7351;51.194;4.098;2022-10-31T05:00:51;13.60;99.90
14529;DHT22;7351;51.194;4.098;2022-10-31T05:03:19;13.50;99.90
14529;DHT22;7351;51.194;4.098;2022-10-31T05:05:46;13.50;99.90
14529;DHT22;7351;51.194;4.098;2022-10-31T05:08:13;13.50;99.90
14529;DHT22;7351;51.194;4.098;2022-10-31T05:10:40;13.50;99.90
14529;DHT22;7351;51.194;4.098;2022-10-31T05:13:10;13.40;99.90
14529;DHT22;7351;51.194;4.098;2022-10-31T05:15:37;13.30;99.90
14529;DHT22;7351;51.194;4.098;2022-10-31T05:18:04;13.30;99.90
14529;DHT22;7351;51.194;4.098;2022-10-31T05:20:33;13.20;99.90
14529;DHT22;7351;51.194;4.098;2022-10-31T05:23:00;13.30;99.90
14529;DHT22;7351;51.194;4.098;2022-10-31T05:25:28;13.10;99.90
14529;DHT22;7351;51.194;4.098;2022-10-31T05:27:56;13.10;99.90
14529;DHT22;7351;51.194;4.098;2022-10-31T05:30:26;13.00;99.90
14529;DHT22;7351;51.194;4.098;2022-10-31T05:32:54;13.00;99.90
14529;DHT22;7351;51.194;4.098;2022-10-31T05:35:23;12.90;99.90
14529;DHT22;7351;51.194;4.098;2022-10-31T05:37:50;12.80;99.90
14529;DHT22;7351;51.194;4.098;2022-10-31T05:40:19;12.90;99.90
14529;DHT22;7351;51.194;4.098;2022-10-31T05:42:46;13.00;99.90
14529;DHT22;7351;51.194;4.098;2022-10-31T05:45:15;13.00;99.90
14529;DHT22;7351;51.194;4.098;2022-10-31T05:47:50;13.00;99.90
14529;DHT22;7351;51.194;4.098;2022-10-31T05:50:17;13.00;99.90
14529;DHT22;7351;51.194;4.098;2022-10-31T05:52:44;13.10;99.90
14529;DHT22;7351;51.194;4.098;2022-10-31T05:55:11;13.10;99.90
14529;DHT22;7351;51.194;4.098;2022-10-31T05:57:39;13.10;99.90
14529;DHT22;7351;51.194;4.098;2022-10-31T06:00:07;13.20;99.90
14529;DHT22;7351;51.194;4.098;2022-10-31T06:02:34;13.20;99.90
14529;DHT22;7351;51.194;4.098;2022-10-31T06:05:02;13.30;99.90
14529;DHT22;7351;51.194;4.098;2022-10-31T06:07:32;13.20;99.90
14529;DHT22;7351;51.194;4.098;2022-10-31T06:09:59;13.30;99.90
14529;DHT22;7351;51.194;4.098;2022-10-31T06:12:26;13.20;99.90
14529;DHT22;7351;51.194;4.098;2022-10-31T06:14:53;13.30;99.90
14529;DHT22;7351;51.194;4.098;2022-10-31T06:17:20;13.40;99.90
14529;DHT22;7351;51.194;4.098;2022-10-31T06:19:47;13.40;99.90
14529;DHT22;7351;51.194;4.098;2022-10-31T06:22:16;13.40;99.90
14529;DHT22;7351;51.194;4.098;2022-10-31T06:24:43;13.40;99.90
14529;DHT22;7351;51.194;4.098;2022-10-31T06:27:10;13.50;99.90
14529;DHT22;7351;51.194;4.098;2022-10-31T06:29:37;13.40;99.90
14529;DHT22;7351;51.194;4.098;2022-10-31T06:32:05;13.40;99.90
14529;DHT22;7351;51.194;4.098;2022-10-31T06:34:32;13.40;99.90
14529;DHT22;7351;51.194;4.098;2022-10-31T06:36:59;13.50;99.90
14529;DHT22;7351;51.194;4.098;2022-10-31T06:39:27;13.50;99.90
14529;DHT22;7351;51.194;4.098;2022-10-31T06:41:54;13.60;99.90
14529;DHT22;7351;51.194;4.098;2022-10-31T06:44:21;13.40;99.90
14529;DHT22;7351;51.194;4.098;2022-10-31T06:46:48;13.50;99.90
14529;DHT22;7351;51.194;4.098;2022-10-31T06:49:15;13.40;99.90
14529;DHT22;7351;51.194;4.098;2022-10-31T06:51:42;13.30;99.90
14529;DHT22;7351;51.194;4.098;2022-10-31T06:54:09;13.40;99.90
14529;DHT22;7351;51.194;4.098;2022-10-31T06:56:39;13.40;99.90
14529;DHT22;7351;51.194;4.098;2022-10-31T06:59:06;13.50;99.90
14529;DHT22;7351;51.194;4.098;2022-10-31T07:01:33;13.50;99.90
14529;DHT22;7351;51.194;4.098;2022-10-31T07:04:00;13.40;99.90
14529;DHT22;7351;51.194;4.098;2022-10-31T07:06:27;13.40;99.90
14529;DHT22;7351;51.194;4.098;2022-10-31T07:08:54;13.50;99.90
14529;DHT22;7351;51.194;4.098;2022-10-31T07:11:21;13.40;99.90
14529;DHT22;7351;51.194;4.098;2022-10-31T07:13:50;13.50;99.90
14529;DHT22;7351;51.194;4.098;2022-10-31T07:16:24;13.50;99.90
14529;DHT22;7351;51.194;4.098;2022-10-31T07:18:51;13.60;99.90
14529;DHT22;7351;51.194;4.098;2022-10-31T07:21:18;13.60;99.90
14529;DHT22;7351;51.194;4.098;2022-10-31T07:23:47;13.60;99.90
14529;DHT22;7351;51.194;4.098;2022-10-31T07:26:15;13.60;99.90
14529;DHT22;7351;51.194;4.098;2022-10-31T07:28:42;13.60;99.90
14529;DHT22;7351;51.194;4.098;2022-10-31T07:31:10;13.70;99.90
14529;DHT22;7351;51.194;4.098;2022-10-31T07:33:37;13.70;99.90
14529;DHT22;7351;51.194;4.098;2022-10-31T07:36:04;13.90;99.90
14529;DHT22;7351;51.194;4.098;2022-10-31T07:38:32;13.90;99.90
14529;DHT22;7351;51.194;4.098;2022-10-31T07:40:58;13.90;99.90
14529;DHT22;7351;51.194;4.098;2022-10-31T07:43:25;14.00;99.90
14529;DHT22;7351;51.194;4.098;2022-10-31T07:45:53;14.00;99.90
14529;DHT22;7351;51.194;4.098;2022-10-31T07:48:22;14.00;99.90
14529;DHT22;7351;51.194;4.098;2022-10-31T07:50:50;14.20;99.90
14529;DHT22;7351;51.194;4.098;2022-10-31T07:53:17;14.10;99.90
14529;DHT22;7351;51.194;4.098;2022-10-31T07:55:44;14.20;99.90
14529;DHT22;7351;51.194;4.098;2022-10-31T07:58:13;14.20;99.90
14529;DHT22;7351;51.194;4.098;2022-10-31T08:00:41;14.30;99.90
14529;DHT22;7351;51.194;4.098;2022-10-31T08:03:10;14.20;99.90
14529;DHT22;7351;51.194;4.098;2022-10-31T08:05:39;14.40;99.90
14529;DHT22;7351;51.194;4.098;2022-10-31T08:08:07;14.40;99.90
14529;DHT22;7351;51.194;4.098;2022-10-31T08:10:34;14.60;99.90
14529;DHT22;7351;51.194;4.098;2022-10-31T08:13:04;14.60;99.90
14529;DHT22;7351;51.194;4.098;2022-10-31T08:15:32;14.70;99.90
14529;DHT22;7351;51.194;4.098;2022-10-31T08:18:05;14.80;99.90
14529;DHT22;7351;51.194;4.098;2022-10-31T08:20:32;14.90;99.90
14529;DHT22;7351;51.194;4.098;2022-10-31T08:23:02;14.90;99.90
14529;DHT22;7351;51.194;4.098;2022-10-31T08:25:31;14.90;99.90
14529;DHT22;7351;51.194;4.098;2022-10-31T08:27:59;14.90;99.90
14529;DHT22;7351;51.194;4.098;2022-10-31T08:30:27;14.90;99.90
14529;DHT22;7351;51.194;4.098;2022-10-31T08:32:59;14.90;99.90
14529;DHT22;7351;51.194;4.098;2022-10-31T08:35:27;14.90;99.90
14529;DHT22;7351;51.194;4.098;2022-10-31T08:37:54;14.90;99.90
14529;DHT22;7351;51.194;4.098;2022-10-31T08:40:23;14.80;99.90
14529;DHT22;7351;51.194;4.098;2022-10-31T08:43:00;14.90;99.90
14529;DHT22;7351;51.194;4.098;2022-10-31T08:45:28;14.90;99.90
14529;DHT22;7351;51.194;4.098;2022-10-31T08:47:59;15.10;99.90
14529;DHT22;7351;51.194;4.098;2022-10-31T08:50:26;15.20;99.90
14529;DHT22;7351;51.194;4.098;2022-10-31T08:52:59;15.20;99.90
14529;DHT22;7351;51.194;4.098;2022-10-31T08:55:27;15.20;99.90
14529;DHT22;7351;51.194;4.098;2022-10-31T08:57:55;15.20;99.90
14529;DHT22;7351;51.194;4.098;2022-10-31T09:00:23;15.10;99.90
14529;DHT22;7351;51.194;4.098;2022-10-31T09:02:55;15.10;99.90
14529;DHT22;7351;51.194;4.098;2022-10-31T09:05:23;15.20;99.90
14529;DHT22;7351;51.194;4.098;2022-10-31T09:07:55;15.30;99.90
14529;DHT22;7351;51.194;4.098;2022-10-31T09:10:22;15.30;99.90
14529;DHT22;7351;51.194;4.098;2022-10-31T09:12:56;15.40;99.90
14529;DHT22;7351;51.194;4.098;2022-10-31T09:15:23;15.40;99.90
14529;DHT22;7351;51.194;4.098;2022-10-31T09:17:50;15.40;99.90
14529;DHT22;7351;51.194;4.098;2022-10-31T09:20:18;15.40;99.90
14529;DHT22;7351;51.194;4.098;2022-10-31T09:22:45;15.50;99.90
14529;DHT22;7351;51.194;4.098;2022-10-31T09:25:12;15.60;99.90
14529;DHT22;7351;51.194;4.098;2022-10-31T09:27:39;15.80;99.90
14529;DHT22;7351;51.194;4.098;2022-10-31T09:30:09;15.90;99.90
14529;DHT22;7351;51.194;4.098;2022-10-31T09:32:36;16.00;99.90
14529;DHT22;7351;51.194;4.098;2022-10-31T09:35:04;16.10;99.90
14529;DHT22;7351;51.194;4.098;2022-10-31T09:37:31;16.10;99.90
14529;DHT22;7351;51.194;4.098;2022-10-31T09:39:58;16.30;99.90
14529;DHT22;7351;51.194;4.098;2022-10-31T09:42:54;16.40;99.90
14529;DHT22;7351;51.194;4.098;2022-10-31T09:45:28;16.60;99.90
14529;DHT22;7351;51.194;4.098;2022-10-31T09:48:10;16.70;99.90
14529;DHT22;7351;51.194;4.098;2022-10-31T09:50:41;16.70;99.90
14529;DHT22;7351;51.194;4.098;2022-10-31T09:53:13;16.60;99.90
14529;DHT22;7351;51.194;4.098;2022-10-31T09:55:44;16.60;99.90
14529;DHT22;7351;51.194;4.098;2022-10-31T09:58:15;16.60;99.90
14529;DHT22;7351;51.194;4.098;2022-10-31T10:00:45;16.60;99.90
14529;DHT22;7351;51.194;4.098;2022-10-31T10:03:24;16.60;99.90
14529;DHT22;7351;51.194;4.098;2022-10-31T10:05:58;16.60;99.90
14529;DHT22;7351;51.194;4.098;2022-10-31T10:08:31;16.50;99.90
14529;DHT22;7351;51.194;4.098;2022-10-31T10:11:17;16.50;99.90
14529;DHT22;7351;51.194;4.098;2022-10-31T10:13:59;15.80;99.90
14529;DHT22;7351;51.194;4.098;2022-10-31T10:16:43;16.50;99.90
14529;DHT22;7351;51.194;4.098;2022-10-31T10:19:23;16.60;99.90
14529;DHT22;7351;51.194;4.098;2022-10-31T10:21:58;16.60;99.90
14529;DHT22;7351;51.194;4.098;2022-10-31T10:24:35;16.60;99.90
14529;DHT22;7351;51.194;4.098;2022-10-31T10:27:14;16.60;99.90
14529;DHT22;7351;51.194;4.098;2022-10-31T10:29:47;16.60;99.90
14529;DHT22;7351;51.194;4.098;2022-10-31T10:32:22;16.60;99.90
14529;DHT22;7351;51.194;4.098;2022-10-31T10:34:51;16.70;99.90
14529;DHT22;7351;51.194;4.098;2022-10-31T10:37:24;16.70;99.90
14529;DHT22;7351;51.194;4.098;2022-10-31T10:39:55;16.70;99.90
14529;DHT22;7351;51.194;4.098;2022-10-31T10:42:25;16.70;99.90
14529;DHT22;7351;51.194;4.098;2022-10-31T10:45:15;16.70;99.90
14529;DHT22;7351;51.194;4.098;2022-10-31T10:48:10;16.70;99.90
14529;DHT22;7351;51.194;4.098;2022-10-31T10:50:44;16.60;99.90
14529;DHT22;7351;51.194;4.098;2022-10-31T10:53:25;16.60;99.90
14529;DHT22;7351;51.194;4.098;2022-10-31T10:56:09;16.60;99.90
14529;DHT22;7351;51.194;4.098;2022-10-31T10:58:38;16.70;99.90
14529;DHT22;7351;51.194;4.098;2022-10-31T11:01:11;16.80;99.90
14529;DHT22;7351;51.194;4.098;2022-10-31T11:03:40;16.70;99.90
14529;DHT22;7351;51.194;4.098;2022-10-31T11:06:17;16.80;99.90
14529;DHT22;7351;51.194;4.098;2022-10-31T11:08:47;16.90;99.90
14529;DHT22;7351;51.194;4.098;2022-10-31T11:11:23;17.00;99.90
14529;DHT22;7351;51.194;4.098;2022-10-31T11:13:57;17.00;99.90
14529;DHT22;7351;51.194;4.098;2022-10-31T11:16:30;16.90;99.90
14529;DHT22;7351;51.194;4.098;2022-10-31T11:19:21;17.10;99.90
14529;DHT22;7351;51.194;4.098;2022-10-31T11:21:49;17.10;99.90
14529;DHT22;7351;51.194;4.098;2022-10-31T11:24:18;17.20;99.90
14529;DHT22;7351;51.194;4.098;2022-10-31T11:26:47;17.30;99.90
14529;DHT22;7351;51.194;4.098;2022-10-31T11:29:16;17.30;99.90
14529;DHT22;7351;51.194;4.098;2022-10-31T11:31:45;17.40;99.90
14529;DHT22;7351;51.194;4.098;2022-10-31T11:34:22;17.40;99.90
14529;DHT22;7351;51.194;4.098;2022-10-31T11:36:51;17.40;99.90
14529;DHT22;7351;51.194;4.098;2022-10-31T11:39:22;17.60;99.90
14529;DHT22;7351;51.194;4.098;2022-10-31T11:41:51;17.60;99.90
14529;DHT22;7351;51.194;4.098;2022-10-31T11:44:20;17.60;99.90
14529;DHT22;7351;51.194;4.098;2022-10-31T11:46:50;17.50;99.90
14529;DHT22;7351;51.194;4.098;2022-10-31T11:49:27;17.60;99.90
14529;DHT22;7351;51.194;4.098;2022-10-31T11:51:57;17.50;99.90
14529;DHT22;7351;51.194;4.098;2022-10-31T11:54:27;17.30;99.90
14529;DHT22;7351;51.194;4.098;2022-10-31T11:56:55;17.30;99.90
14529;DHT22;7351;51.194;4.098;2022-10-31T11:59:26;17.40;99.90
14529;DHT22;7351;51.194;4.098;2022-10-31T12:01:55;17.40;99.90
14529;DHT22;7351;51.194;4.098;2022-10-31T12:04:31;17.40;99.90
14529;DHT22;7351;51.194;4.098;2022-10-31T12:07:02;17.40;99.90
14529;DHT22;7351;51.194;4.098;2022-10-31T12:09:30;17.50;99.90
14529;DHT22;7351;51.194;4.098;2022-10-31T12:12:18;17.50;99.90
14529;DHT22;7351;51.194;4.098;2022-10-31T12:15:01;17.40;99.90
14529;DHT22;7351;51.194;4.098;2022-10-31T12:17:36;17.30;99.90
14529;DHT22;7351;51.194;4.098;2022-10-31T12:20:19;17.40;99.90
14529;DHT22;7351;51.194;4.098;2022-10-31T12:22:55;17.50;99.90
14529;DHT22;7351;51.194;4.098;2022-10-31T12:25:33;17.70;99.90
14529;DHT22;7351;51.194;4.098;2022-10-31T12:28:34;17.50;99.90
14529;DHT22;7351;51.194;4.098;2022-10-31T12:31:17;17.60;99.90
14529;DHT22;7351;51.194;4.098;2022-10-31T12:33:59;17.80;99.90
14529;DHT22;7351;51.194;4.098;2022-10-31T12:36:42;17.80;99.90
14529;DHT22;7351;51.194;4.098;2022-10-31T12:39:24;17.80;99.90
14529;DHT22;7351;51.194;4.098;2022-10-31T12:42:03;17.90;99.90
14529;DHT22;7351;51.194;4.098;2022-10-31T12:45:09;17.90;99.90
14529;DHT22;7351;51.194;4.098;2022-10-31T12:47:49;17.90;99.90
14529;DHT22;7351;51.194;4.098;2022-10-31T12:50:29;17.80;99.90
14529;DHT22;7351;51.194;4.098;2022-10-31T12:53:10;17.80;99.90
14529;DHT22;7351;51.194;4.098;2022-10-31T12:55:44;18.00;99.90
14529;DHT22;7351;51.194;4.098;2022-10-31T12:58:20;18.00;99.90
14529;DHT22;7351;51.194;4.098;2022-10-31T13:00:52;18.10;99.90
14529;DHT22;7351;51.194;4.098;2022-10-31T13:03:28;18.20;99.90
14529;DHT22;7351;51.194;4.098;2022-10-31T13:06:03;18.30;99.90
14529;DHT22;7351;51.194;4.098;2022-10-31T13:08:38;18.30;99.90
14529;DHT22;7351;51.194;4.098;2022-10-31T13:11:10;18.30;99.90
14529;DHT22;7351;51.194;4.098;2022-10-31T13:13:41;18.30;99.90
14529;DHT22;7351;51.194;4.098;2022-10-31T13:16:14;18.30;99.90
14529;DHT22;7351;51.194;4.098;2022-10-31T13:18:45;18.20;99.90
14529;DHT22;7351;51.194;4.098;2022-10-31T13:21:18;18.30;99.90
14529;DHT22;7351;51.194;4.098;2022-10-31T13:23:50;18.30;99.90
14529;DHT22;7351;51.194;4.098;2022-10-31T13:26:24;18.40;99.90
14529;DHT22;7351;51.194;4.098;2022-10-31T13:29:00;18.40;99.90
14529;DHT22;7351;51.194;4.098;2022-10-31T13:31:30;18.40;99.90
14529;DHT22;7351;51.194;4.098;2022-10-31T13:34:00;18.40;99.90
14529;DHT22;7351;51.194;4.098;2022-10-31T13:36:34;18.40;99.90
14529;DHT22;7351;51.194;4.098;2022-10-31T13:39:14;18.30;99.90
14529;DHT22;7351;51.194;4.098;2022-10-31T13:41:47;18.40;99.90
14529;DHT22;7351;51.194;4.098;2022-10-31T13:44:20;18.50;99.90
14529;DHT22;7351;51.194;4.098;2022-10-31T13:46:50;18.50;99.90
14529;DHT22;7351;51.194;4.098;2022-10-31T13:49:37;18.50;99.90
14529;DHT22;7351;51.194;4.098;2022-10-31T13:52:12;18.60;99.90
14529;DHT22;7351;51.194;4.098;2022-10-31T13:54:43;18.70;99.90
14529;DHT22;7351;51.194;4.098;2022-10-31T13:57:17;18.80;99.90
14529;DHT22;7351;51.194;4.098;2022-10-31T13:59:49;18.70;99.90
14529;DHT22;7351;51.194;4.098;2022-10-31T14:02:18;18.60;99.90
14529;DHT22;7351;51.194;4.098;2022-10-31T14:04:51;18.60;99.90
14529;DHT22;7351;51.194;4.098;2022-10-31T14:07:22;18.60;99.90
14529;DHT22;7351;51.194;4.098;2022-10-31T14:09:55;18.60;99.90
14529;DHT22;7351;51.194;4.098;2022-10-31T14:12:26;18.40;99.90
14529;DHT22;7351;51.194;4.098;2022-10-31T14:14:56;18.40;99.90
14529;DHT22;7351;51.194;4.098;2022-10-31T14:17:26;18.50;99.90
14529;DHT22;7351;51.194;4.098;2022-10-31T14:22:45;18.30;99.90
14529;DHT22;7351;51.194;4.098;2022-10-31T14:25:27;18.30;99.90
14529;DHT22;7351;51.194;4.098;2022-10-31T14:27:55;18.40;99.90
14529;DHT22;7351;51.194;4.098;2022-10-31T14:30:24;18.30;99.90
14529;DHT22;7351;51.194;4.098;2022-10-31T14:32:54;18.40;99.90
14529;DHT22;7351;51.194;4.098;2022-10-31T14:35:25;18.40;99.90
14529;DHT22;7351;51.194;4.098;2022-10-31T14:38:11;18.30;99.90
14529;DHT22;7351;51.194;4.098;2022-10-31T14:46:46;18.50;99.90
14529;DHT22;7351;51.194;4.098;2022-10-31T14:49:39;18.60;99.90
14529;DHT22;7351;51.194;4.098;2022-10-31T14:52:13;18.70;99.90
14529;DHT22;7351;51.194;4.098;2022-10-31T14:54:44;18.70;99.90
14529;DHT22;7351;51.194;4.098;2022-10-31T14:57:18;18.70;99.90
14529;DHT22;7351;51.194;4.098;2022-10-31T14:59:48;18.80;99.90
14529;DHT22;7351;51.194;4.098;2022-10-31T15:02:20;18.90;99.90
14529;DHT22;7351;51.194;4.098;2022-10-31T15:04:51;18.80;99.90
14529;DHT22;7351;51.194;4.098;2022-10-31T15:07:21;18.70;99.90
14529;DHT22;7351;51.194;4.098;2022-10-31T15:09:55;18.70;99.90
14529;DHT22;7351;51.194;4.098;2022-10-31T15:12:26;18.70;99.90
14529;DHT22;7351;51.194;4.098;2022-10-31T15:14:54;18.60;99.90
14529;DHT22;7351;51.194;4.098;2022-10-31T15:17:22;18.60;99.90
14529;DHT22;7351;51.194;4.098;2022-10-31T15:19:50;18.50;99.90
14529;DHT22;7351;51.194;4.098;2022-10-31T15:22:20;18.50;99.90
14529;DHT22;7351;51.194;4.098;2022-10-31T15:24:50;18.40;99.90
14529;DHT22;7351;51.194;4.098;2022-10-31T15:27:22;18.40;99.90
14529;DHT22;7351;51.194;4.098;2022-10-31T15:29:53;18.50;99.90
14529;DHT22;7351;51.194;4.098;2022-10-31T15:32:22;18.40;99.90
14529;DHT22;7351;51.194;4.098;2022-10-31T15:34:50;18.30;99.90
14529;DHT22;7351;51.194;4.098;2022-10-31T15:37:18;18.20;99.90
14529;DHT22;7351;51.194;4.098;2022-10-31T15:39:48;18.20;99.90
14529;DHT22;7351;51.194;4.098;2022-10-31T15:42:20;18.20;99.90
14529;DHT22;7351;51.194;4.098;2022-10-31T15:44:51;18.20;99.90
14529;DHT22;7351;51.194;4.098;2022-10-31T15:47:21;18.20;99.90
14529;DHT22;7351;51.194;4.098;2022-10-31T15:49:51;18.10;99.90
14529;DHT22;7351;51.194;4.098;2022-10-31T15:52:25;18.20;99.90
14529;DHT22;7351;51.194;4.098;2022-10-31T15:54:55;18.30;99.90
14529;DHT22;7351;51.194;4.098;2022-10-31T15:57:24;18.30;99.90
14529;DHT22;7351;51.194;4.098;2022-10-31T15:59:54;18.20;99.90
14529;DHT22;7351;51.194;4.098;2022-10-31T16:02:23;18.30;99.90
14529;DHT22;7351;51.194;4.098;2022-10-31T16:04:54;18.30;99.90
14529;DHT22;7351;51.194;4.098;2022-10-31T16:07:22;18.30;99.90
14529;DHT22;7351;51.194;4.098;2022-10-31T16:09:52;18.30;99.90
14529;DHT22;7351;51.194;4.098;2022-10-31T16:12:20;18.30;99.90
14529;DHT22;7351;51.194;4.098;2022-10-31T16:14:47;18.20;99.90
14529;DHT22;7351;51.194;4.098;2022-10-31T16:17:18;18.20;99.90
14529;DHT22;7351;51.194;4.098;2022-10-31T16:19:54;18.10;99.90
14529;DHT22;7351;51.194;4.098;2022-10-31T16:22:25;18.00;99.90